Time;durP1;ratioP1;P1;durP2;ratioP2;P2;SDS_P1;SDS_P2;PMS_P1;PMS_P2;Temp;Humidity;BMP_temperature;BMP_pressure;BME280_temperature;BME280_humidity;BME280_pressure;Samples;Min_cycle;Max_cycle;Signal;HPM_P1;HPM_P2
2022/06/23 00:00:59;;;;;;;14.00;13.23;;;17.80;83.50;;;;;;5056792;28;20464;-69
2022/06/23 00:03:31;;;;;;;14.30;13.50;;;17.70;83.00;;;;;;5055444;28;20469;-69
2022/06/23 00:06:02;;;;;;;13.87;13.07;;;17.60;83.20;;;;;;5055633;28;20470;-69
2022/06/23 00:08:29;;;;;;;13.30;12.60;;;17.60;83.70;;;;;;5051362;28;20495;-69
2022/06/23 00:10:58;;;;;;;13.33;12.73;;;17.50;82.50;;;;;;5058622;28;21149;-68
2022/06/23 00:13:32;;;;;;;13.87;13.07;;;17.50;82.20;;;;;;5051479;28;20467;-69
2022/06/23 00:16:01;;;;;;;12.83;12.23;;;17.50;82.50;;;;;;5051017;28;20454;-69
2022/06/23 00:18:32;;;;;;;12.83;12.00;;;17.50;82.80;;;;;;5049736;28;20466;-69
2022/06/23 00:21:02;;;;;;;13.67;13.07;;;17.40;82.50;;;;;;5048100;28;20471;-69
2022/06/23 00:23:33;;;;;;;13.73;13.07;;;17.40;83.50;;;;;;5054298;28;20842;-69
2022/06/23 00:26:04;;;;;;;12.90;12.30;;;17.40;84.50;;;;;;5050754;28;20471;-69
2022/06/23 00:28:35;;;;;;;13.20;12.50;;;17.40;83.80;;;;;;5056261;28;20689;-68
2022/06/23 00:31:06;;;;;;;14.13;12.67;;;17.50;84.00;;;;;;5058720;28;20470;-69
2022/06/23 00:33:45;;;;;;;13.70;12.83;;;17.60;85.60;;;;;;5056905;28;20474;-69
2022/06/23 00:36:17;;;;;;;13.23;12.43;;;17.70;85.90;;;;;;5060361;28;20470;-69
2022/06/23 00:38:47;;;;;;;13.23;12.40;;;17.80;85.00;;;;;;5058583;28;20460;-68
2022/06/23 00:41:18;;;;;;;13.70;13.00;;;17.90;84.50;;;;;;5057418;28;20600;-69
2022/06/23 00:43:47;;;;;;;12.90;12.20;;;17.90;84.50;;;;;;5056680;28;20496;-68
2022/06/23 00:46:23;;;;;;;14.53;13.63;;;18.00;84.20;;;;;;5059686;28;20830;-69
2022/06/23 00:48:56;;;;;;;13.63;12.43;;;18.00;85.50;;;;;;5058333;28;20487;-69
2022/06/23 00:51:28;;;;;;;12.93;12.13;;;18.10;86.00;;;;;;5064384;28;20462;-69
2022/06/23 00:54:01;;;;;;;12.47;11.87;;;18.00;85.30;;;;;;5058922;28;20463;-69
2022/06/23 00:56:43;;;;;;;13.03;12.40;;;17.90;85.40;;;;;;5052967;28;20459;-68
2022/06/23 00:59:16;;;;;;;13.70;12.50;;;17.90;83.80;;;;;;5056506;28;20697;-66
2022/06/23 01:01:49;;;;;;;12.97;12.27;;;17.70;83.90;;;;;;5057186;28;20495;-67
2022/06/23 01:04:27;;;;;;;12.73;12.13;;;17.70;86.60;;;;;;5056960;28;20933;-67
2022/06/23 01:06:59;;;;;;;13.87;12.97;;;17.70;87.70;;;;;;5054114;28;20822;-67
2022/06/23 01:09:32;;;;;;;13.43;12.73;;;17.60;87.30;;;;;;5055478;28;20524;-66
2022/06/23 01:12:03;;;;;;;13.63;12.97;;;17.60;86.70;;;;;;5065296;28;20462;-67
2022/06/23 01:14:42;;;;;;;13.20;12.60;;;17.70;88.90;;;;;;5056237;28;20463;-67
2022/06/23 01:17:16;;;;;;;13.77;13.07;;;17.60;90.00;;;;;;5060010;28;20462;-66
2022/06/23 01:20:06;;;;;;;14.00;13.00;;;17.60;93.10;;;;;;5054132;28;20499;-67
2022/06/23 01:22:52;;;;;;;14.57;13.77;;;17.50;91.80;;;;;;5055345;28;20490;-67
2022/06/23 01:25:34;;;;;;;14.20;13.27;;;17.40;91.90;;;;;;5059036;28;20463;-67
2022/06/23 01:28:05;;;;;;;15.10;13.93;;;17.40;94.60;;;;;;5051664;28;20530;-66
2022/06/23 01:30:37;;;;;;;13.13;12.50;;;17.30;97.20;;;;;;5059335;28;20933;-67
2022/06/23 01:33:14;;;;;;;13.90;13.20;;;17.30;98.50;;;;;;5056563;28;20456;-66
2022/06/23 01:35:47;;;;;;;14.73;13.93;;;17.10;98.90;;;;;;5055952;28;20563;-67
2022/06/23 01:38:22;;;;;;;13.73;13.03;;;16.90;99.70;;;;;;5054442;28;20470;-67
2022/06/23 01:40:53;;;;;;;14.20;13.23;;;16.70;99.90;;;;;;5055171;28;20489;-67
2022/06/23 01:43:25;;;;;;;14.97;13.90;;;16.60;99.90;;;;;;5052545;28;20501;-66
2022/06/23 01:45:56;;;;;;;15.20;14.20;;;16.50;99.90;;;;;;5057341;28;20459;-67
2022/06/23 01:51:21;;;;;;;13.80;12.90;;;16.50;99.90;;;;;;5050578;28;20531;-66
2022/06/23 01:53:49;;;;;;;14.13;13.20;;;16.50;99.90;;;;;;5057232;28;20588;-67
2022/06/23 01:56:23;;;;;;;15.50;14.13;;;16.40;99.90;;;;;;5054979;28;20470;-67
2022/06/23 01:58:57;;;;;;;14.17;13.43;;;16.30;99.90;;;;;;5054583;28;20460;-67
2022/06/23 02:01:32;;;;;;;14.67;13.83;;;16.20;99.90;;;;;;5056297;28;20459;-66
2022/06/23 02:04:08;;;;;;;14.90;13.80;;;16.20;99.90;;;;;;5049512;28;20455;-66
2022/06/23 02:06:44;;;;;;;14.50;13.60;;;16.30;99.90;;;;;;5059744;28;20467;-66
2022/06/23 02:09:18;;;;;;;14.80;14.00;;;16.30;99.90;;;;;;5049224;28;20499;-67
2022/06/23 02:11:48;;;;;;;14.37;13.57;;;16.40;99.90;;;;;;5059313;28;20462;-66
2022/06/23 02:14:24;;;;;;;14.30;13.30;;;16.40;99.90;;;;;;5054237;28;20456;-66
2022/06/23 02:16:56;;;;;;;14.53;13.47;;;16.40;99.90;;;;;;5056808;28;20970;-66
2022/06/23 02:19:30;;;;;;;14.87;13.93;;;16.40;99.90;;;;;;5052352;28;20463;-67
2022/06/23 02:22:07;;;;;;;14.83;14.07;;;16.40;99.90;;;;;;5060223;28;20488;-66
2022/06/23 02:24:38;;;;;;;14.97;13.97;;;16.40;99.90;;;;;;5057546;28;20975;-67
2022/06/23 02:27:17;;;;;;;13.50;12.80;;;16.30;99.90;;;;;;5057784;28;20467;-67
2022/06/23 02:29:54;;;;;;;14.80;13.67;;;16.30;99.90;;;;;;5053286;28;20552;-67
2022/06/23 02:32:26;;;;;;;14.23;13.40;;;16.30;99.90;;;;;;5058317;28;20470;-67
2022/06/23 02:34:58;;;;;;;14.27;13.57;;;16.30;99.90;;;;;;5053461;28;20486;-66
2022/06/23 02:37:51;;;;;;;14.23;13.40;;;16.20;99.90;;;;;;5051475;28;20478;-66
2022/06/23 02:40:23;;;;;;;16.10;14.70;;;16.40;99.90;;;;;;5056978;28;20501;-66
2022/06/23 02:42:53;;;;;;;14.83;13.93;;;16.40;99.90;;;;;;5052720;28;20473;-66
2022/06/23 02:45:49;;;;;;;14.57;13.67;;;16.40;99.90;;;;;;5052779;28;20466;-66
2022/06/23 02:48:29;;;;;;;15.30;14.40;;;16.40;99.90;;;;;;5047704;28;20577;-66
2022/06/23 02:51:08;;;;;;;14.53;13.47;;;16.30;99.90;;;;;;5046521;28;20491;-67
2022/06/23 02:54:07;;;;;;;14.80;13.80;;;16.20;99.90;;;;;;5048477;28;20489;-67
2022/06/23 02:56:58;;;;;;;14.57;13.70;;;16.00;99.90;;;;;;5053628;28;20455;-66
2022/06/23 02:59:34;;;;;;;14.67;13.87;;;16.00;99.90;;;;;;5055923;28;20463;-66
2022/06/23 03:02:10;;;;;;;15.63;14.30;;;16.00;99.90;;;;;;5050479;28;20459;-66
2022/06/23 03:04:44;;;;;;;15.90;14.60;;;15.90;99.90;;;;;;5056191;28;20976;-66
2022/06/23 03:07:19;;;;;;;16.23;15.23;;;15.90;99.90;;;;;;5051642;28;20472;-66
2022/06/23 03:09:49;;;;;;;17.63;14.47;;;15.90;99.90;;;;;;5052738;28;20581;-66
2022/06/23 03:12:19;;;;;;;14.40;13.40;;;15.90;99.90;;;;;;5057828;28;20460;-66
2022/06/23 03:14:52;;;;;;;14.80;14.00;;;15.90;99.90;;;;;;5060611;28;20462;-66
2022/06/23 03:17:25;;;;;;;14.10;13.30;;;15.80;99.90;;;;;;5057348;28;20464;-66
2022/06/23 03:20:00;;;;;;;15.73;14.20;;;15.80;99.90;;;;;;5054186;28;20463;-67
2022/06/23 03:22:32;;;;;;;15.43;14.10;;;15.80;99.90;;;;;;5056405;28;20483;-66
2022/06/23 03:25:08;;;;;;;15.77;14.77;;;15.80;99.90;;;;;;5058601;28;20467;-67
2022/06/23 03:27:38;;;;;;;15.07;13.90;;;15.80;99.90;;;;;;5058645;28;20459;-68
2022/06/23 03:30:14;;;;;;;15.80;14.23;;;16.00;99.90;;;;;;5053414;28;20540;-66
2022/06/23 03:32:49;;;;;;;18.00;13.90;;;16.10;99.90;;;;;;5057614;28;20478;-67
2022/06/23 03:35:22;;;;;;;15.30;14.00;;;16.20;99.90;;;;;;5050825;28;20451;-66
2022/06/23 03:37:56;;;;;;;14.90;13.90;;;16.20;99.90;;;;;;5052884;28;20994;-66
2022/06/23 03:43:19;;;;;;;15.70;14.23;;;16.50;99.90;;;;;;5053621;28;20454;-66
2022/06/23 03:45:51;;;;;;;18.03;14.87;;;16.70;99.90;;;;;;5051590;28;20958;-66
2022/06/23 03:48:26;;;;;;;15.40;13.93;;;16.80;99.90;;;;;;5049751;28;20499;-66
2022/06/23 03:50:58;;;;;;;16.13;14.97;;;17.00;99.90;;;;;;5059359;28;20466;-67
2022/06/23 03:53:28;;;;;;;16.50;15.00;;;17.10;99.90;;;;;;5054550;28;20460;-66
2022/06/23 03:55:59;;;;;;;16.77;14.90;;;17.30;99.90;;;;;;5054942;28;20467;-67
2022/06/23 03:58:34;;;;;;;15.97;14.40;;;17.40;99.90;;;;;;5055299;28;20533;-66
2022/06/23 04:01:08;;;;;;;20.03;15.57;;;17.40;99.90;;;;;;5047039;28;20576;-66
2022/06/23 04:03:42;;;;;;;16.70;15.07;;;17.50;99.90;;;;;;5028753;28;20476;-67
2022/06/23 04:06:35;;;;;;;16.00;14.67;;;17.60;99.90;;;;;;5028425;28;20811;-68
2022/06/23 04:09:07;;;;;;;17.10;15.73;;;17.70;99.90;;;;;;5028485;28;21098;-67
2022/06/23 04:11:45;;;;;;;17.27;15.87;;;17.80;99.90;;;;;;5028857;28;20969;-67
2022/06/23 04:14:20;;;;;;;17.87;16.03;;;18.00;99.90;;;;;;5026588;28;20474;-66
2022/06/23 04:16:50;;;;;;;18.60;16.80;;;18.10;99.90;;;;;;5028716;28;20454;-67
2022/06/23 04:19:24;;;;;;;20.10;16.87;;;18.20;99.90;;;;;;5028738;28;20478;-66
2022/06/23 04:21:58;;;;;;;17.67;16.07;;;18.30;99.90;;;;;;5029043;28;20583;-67
2022/06/23 04:24:27;;;;;;;21.23;17.17;;;18.30;99.90;;;;;;5029116;28;20579;-67
2022/06/23 04:26:57;;;;;;;17.90;16.30;;;18.40;99.90;;;;;;5027785;28;20498;-67
2022/06/23 04:29:27;;;;;;;18.07;16.33;;;18.50;99.90;;;;;;5028375;28;21036;-67
2022/06/23 04:32:00;;;;;;;17.40;15.80;;;18.60;99.90;;;;;;5042271;28;20457;-67
2022/06/23 04:34:32;;;;;;;18.33;16.77;;;18.70;99.90;;;;;;5055279;28;20468;-66
2022/06/23 04:36:59;;;;;;;18.77;17.07;;;18.80;99.90;;;;;;5036108;28;20794;-67
2022/06/23 04:39:33;;;;;;;18.87;16.97;;;18.90;99.90;;;;;;5028377;28;20464;-67
2022/06/23 04:42:08;;;;;;;20.17;17.23;;;19.10;99.90;;;;;;5028735;28;20472;-67
2022/06/23 04:44:43;;;;;;;18.43;16.60;;;19.10;99.90;;;;;;5028688;28;20463;-68
2022/06/23 04:47:16;;;;;;;18.43;16.67;;;19.20;99.90;;;;;;5028147;28;20471;-67
2022/06/23 04:49:50;;;;;;;20.30;18.00;;;19.30;99.90;;;;;;5028019;28;20490;-66
2022/06/23 04:52:23;;;;;;;18.50;17.00;;;19.40;99.90;;;;;;5028091;28;20462;-67
2022/06/23 04:54:54;;;;;;;19.07;17.27;;;19.50;99.90;;;;;;5027535;28;21253;-67
2022/06/23 04:57:25;;;;;;;18.23;16.50;;;19.60;99.90;;;;;;5027692;28;20471;-66
2022/06/23 04:59:54;;;;;;;18.90;17.30;;;19.70;99.90;;;;;;5027907;28;20468;-67
2022/06/23 05:02:30;;;;;;;23.10;17.67;;;19.90;99.90;;;;;;5027713;28;21133;-66
2022/06/23 05:05:04;;;;;;;19.73;17.70;;;20.00;99.90;;;;;;5027785;28;20848;-67
2022/06/23 05:07:36;;;;;;;20.10;17.80;;;20.10;99.90;;;;;;5027581;28;20472;-68
2022/06/23 05:10:07;;;;;;;20.40;17.30;;;20.20;99.90;;;;;;5028209;28;20494;-67
2022/06/23 05:12:37;;;;;;;19.43;17.37;;;20.30;99.90;;;;;;5027983;28;20528;-67
2022/06/23 05:15:13;;;;;;;20.53;16.33;;;20.40;99.90;;;;;;5028929;28;20454;-67
2022/06/23 05:17:47;;;;;;;19.70;17.93;;;20.50;99.90;;;;;;5031976;28;20463;-68
2022/06/23 05:20:30;;;;;;;20.23;18.30;;;20.60;99.90;;;;;;5031664;28;20468;-67
2022/06/23 05:22:57;;;;;;;19.37;17.83;;;20.70;99.90;;;;;;5032077;28;20486;-67
2022/06/23 05:25:35;;;;;;;25.90;17.57;;;20.90;99.90;;;;;;5031477;28;20462;-68
2022/06/23 05:28:05;;;;;;;22.73;18.73;;;21.00;99.90;;;;;;5031294;28;21112;-67
2022/06/23 05:30:35;;;;;;;22.17;17.77;;;21.10;99.90;;;;;;5031276;28;20523;-67
2022/06/23 05:33:05;;;;;;;21.00;18.90;;;21.10;99.90;;;;;;5031730;28;20502;-67
2022/06/23 05:35:38;;;;;;;19.90;17.67;;;21.30;99.90;;;;;;5031320;28;20805;-67
2022/06/23 05:38:10;;;;;;;19.47;17.57;;;21.40;99.90;;;;;;5032544;28;20589;-67
2022/06/23 05:40:43;;;;;;;35.57;18.70;;;21.50;99.90;;;;;;5032945;28;20916;-68
2022/06/23 05:43:12;;;;;;;22.87;17.90;;;21.60;99.90;;;;;;5032112;28;20764;-67
2022/06/23 05:45:43;;;;;;;25.23;18.43;;;21.70;99.90;;;;;;5031794;28;20456;-67
2022/06/23 05:48:16;;;;;;;23.07;18.90;;;21.80;99.90;;;;;;5031319;28;20459;-67
2022/06/23 05:50:47;;;;;;;19.87;17.53;;;21.80;99.90;;;;;;5031129;28;20827;-67
2022/06/23 05:53:21;;;;;;;20.17;18.40;;;22.00;99.90;;;;;;5030666;28;20462;-68
2022/06/23 05:55:51;;;;;;;20.70;18.70;;;22.10;99.90;;;;;;5030966;28;20471;-67
2022/06/23 05:58:24;;;;;;;29.03;18.17;;;22.20;99.90;;;;;;5030624;28;20494;-66
2022/06/23 06:00:58;;;;;;;20.40;18.40;;;22.40;99.90;;;;;;5030433;28;21037;-66
2022/06/23 06:03:30;;;;;;;19.10;17.60;;;22.50;99.90;;;;;;5054326;28;20555;-67
2022/06/23 06:06:01;;;;;;;19.10;17.70;;;22.60;99.90;;;;;;5048623;28;20464;-67
2022/06/23 06:08:34;;;;;;;20.07;18.07;;;22.60;99.90;;;;;;5053949;28;20491;-67
2022/06/23 06:11:03;;;;;;;19.27;17.53;;;22.70;99.90;;;;;;5034695;28;20502;-67
2022/06/23 06:13:35;;;;;;;20.40;18.70;;;22.70;99.90;;;;;;5027738;28;20472;-67
2022/06/23 06:16:04;;;;;;;21.53;18.97;;;22.80;99.90;;;;;;5027704;28;21111;-67
2022/06/23 06:18:34;;;;;;;19.30;17.30;;;22.90;99.90;;;;;;5027533;28;21065;-67
2022/06/23 06:21:04;;;;;;;18.67;16.63;;;23.10;99.90;;;;;;5028852;28;20823;-67
2022/06/23 06:23:38;;;;;;;18.53;17.03;;;23.20;99.90;;;;;;5027851;28;20475;-67
2022/06/23 06:26:05;;;;;;;24.40;17.40;;;23.40;99.90;;;;;;5029137;28;20471;-67
2022/06/23 06:28:34;;;;;;;25.10;17.70;;;23.50;99.90;;;;;;5028412;28;20460;-68
2022/06/23 06:31:07;;;;;;;18.70;17.23;;;23.60;99.90;;;;;;5028980;28;20510;-68
2022/06/23 06:33:50;;;;;;;18.90;17.60;;;23.80;99.90;;;;;;5027421;28;20995;-67
2022/06/23 06:36:32;;;;;;;18.90;17.13;;;23.90;99.90;;;;;;5027885;28;20837;-67
2022/06/23 06:39:08;;;;;;;24.07;17.37;;;24.20;99.90;;;;;;5027981;28;21380;-67
2022/06/23 06:41:35;;;;;;;19.63;17.30;;;24.40;99.90;;;;;;5028439;28;21087;-67
2022/06/23 06:44:04;;;;;;;28.13;19.27;;;24.40;99.90;;;;;;5028406;28;20468;-68
2022/06/23 06:46:31;;;;;;;19.20;17.23;;;24.50;99.90;;;;;;5028302;28;20504;-68
2022/06/23 06:48:59;;;;;;;20.93;17.10;;;24.70;99.90;;;;;;5028009;28;20542;-67
2022/06/23 06:51:29;;;;;;;22.83;17.37;;;24.90;99.90;;;;;;5028488;28;20927;-68
2022/06/23 06:54:01;;;;;;;24.73;16.60;;;25.10;99.90;;;;;;5028872;28;20685;-69
2022/06/23 06:56:35;;;;;;;25.47;17.23;;;25.20;99.90;;;;;;5027585;28;20476;-67
2022/06/23 06:59:09;;;;;;;21.13;17.13;;;25.30;99.90;;;;;;5028801;28;20997;-68
2022/06/23 07:01:39;;;;;;;30.03;17.23;;;25.30;99.90;;;;;;5027419;28;20601;-68
2022/06/23 07:04:09;;;;;;;18.40;16.47;;;25.50;99.90;;;;;;5027807;28;20502;-67
2022/06/23 07:06:43;;;;;;;22.57;16.70;;;25.70;99.90;;;;;;5026968;28;20964;-68
2022/06/23 07:09:26;;;;;;;26.83;17.60;;;25.80;99.90;;;;;;5026921;28;20502;-68
2022/06/23 07:11:57;;;;;;;26.00;17.87;;;25.90;99.90;;;;;;5027126;28;20459;-68
2022/06/23 07:14:31;;;;;;;18.17;16.53;;;25.70;99.90;;;;;;5026674;28;20477;-68
2022/06/23 07:17:02;;;;;;;19.10;17.40;;;25.90;99.90;;;;;;5026411;28;20895;-67
2022/06/23 07:19:33;;;;;;;18.27;16.80;;;25.90;99.90;;;;;;5026393;28;20487;-68
2022/06/23 07:22:11;;;;;;;19.63;17.83;;;26.00;99.90;;;;;;5025714;28;21269;-68
2022/06/23 07:24:45;;;;;;;19.17;17.53;;;26.20;99.90;;;;;;5025523;28;20466;-68
2022/06/23 07:27:20;;;;;;;17.70;16.27;;;26.50;99.90;;;;;;5046118;28;20471;-68
2022/06/23 07:29:57;;;;;;;17.27;15.90;;;26.50;99.90;;;;;;5051750;28;20498;-68
2022/06/23 07:32:33;;;;;;;18.00;16.27;;;26.70;99.90;;;;;;5049123;28;20456;-68
2022/06/23 07:35:06;;;;;;;19.90;17.50;;;26.90;99.90;;;;;;5026584;28;20455;-68
2022/06/23 07:37:40;;;;;;;19.20;16.30;;;27.00;99.90;;;;;;5027205;28;20855;-68
2022/06/23 07:40:11;;;;;;;17.13;15.70;;;27.10;99.90;;;;;;5026971;28;21478;-69
2022/06/23 07:42:47;;;;;;;21.10;16.37;;;27.30;99.90;;;;;;5027674;28;20592;-68
2022/06/23 07:45:18;;;;;;;21.53;16.60;;;27.50;99.90;;;;;;5026907;28;20467;-68
2022/06/23 07:47:44;;;;;;;18.97;16.50;;;27.60;99.90;;;;;;5027659;28;21034;-67
2022/06/23 07:50:12;;;;;;;18.90;16.83;;;27.80;99.90;;;;;;5026566;28;20760;-68
2022/06/23 07:52:42;;;;;;;18.03;15.83;;;27.80;99.90;;;;;;5025112;28;20464;-68
2022/06/23 07:55:17;;;;;;;19.10;15.90;;;27.70;99.90;;;;;;5026001;28;20917;-68
2022/06/23 07:57:44;;;;;;;19.60;15.30;;;27.80;99.90;;;;;;5024367;28;20969;-67
2022/06/23 08:00:12;;;;;;;36.13;16.50;;;28.00;99.90;;;;;;5025979;28;20451;-67
2022/06/23 08:02:46;;;;;;;25.20;17.33;;;28.40;99.90;;;;;;5024079;28;20467;-67
2022/06/23 08:05:16;;;;;;;19.53;16.83;;;28.70;99.90;;;;;;5025493;28;20922;-68
2022/06/23 08:07:45;;;;;;;18.50;16.63;;;29.10;99.90;;;;;;5026140;28;20842;-68
2022/06/23 08:10:17;;;;;;;24.23;16.23;;;29.50;99.90;;;;;;5025733;28;20502;-68
2022/06/23 08:12:53;;;;;;;24.67;17.50;;;30.30;99.90;;;;;;5026995;28;20468;-68
2022/06/23 08:18:16;;;;;;;24.23;16.73;;;31.60;98.00;;;;;;5026369;28;20856;-68
2022/06/23 08:20:47;;;;;;;20.97;16.73;;;31.50;96.50;;;;;;5026665;28;20474;-67
2022/06/23 08:23:18;;;;;;;17.50;16.03;;;32.10;94.40;;;;;;5025752;28;20877;-68
2022/06/23 08:25:45;;;;;;;25.23;16.73;;;31.90;93.10;;;;;;5026874;28;20464;-69
2022/06/23 08:28:12;;;;;;;22.27;17.07;;;32.10;93.10;;;;;;5026376;28;20470;-68
2022/06/23 08:30:41;;;;;;;17.83;16.33;;;32.60;92.30;;;;;;5026182;28;20483;-68
2022/06/23 08:33:08;;;;;;;25.07;16.97;;;32.40;92.00;;;;;;5018287;28;20736;-69
2022/06/23 08:35:41;;;;;;;22.70;16.73;;;32.30;90.80;;;;;;5023361;28;20542;-68
2022/06/23 08:38:10;;;;;;;19.63;16.23;;;32.70;91.00;;;;;;5060554;28;20848;-68
2022/06/23 08:40:58;;;;;;;20.57;16.97;;;32.80;89.70;;;;;;5065988;28;20459;-68
2022/06/23 08:43:33;;;;;;;19.00;17.00;;;32.90;87.70;;;;;;5065691;28;20568;-68
2022/06/23 08:46:06;;;;;;;26.80;18.13;;;33.30;85.30;;;;;;5029735;28;20892;-69
2022/06/23 08:48:41;;;;;;;19.80;17.70;;;33.90;78.90;;;;;;5026220;28;20536;-69
2022/06/23 08:51:18;;;;;;;26.03;18.03;;;33.70;78.00;;;;;;5026877;28;20497;-68
2022/06/23 08:53:58;;;;;;;34.20;18.57;;;33.60;78.10;;;;;;5024681;28;21028;-69
2022/06/23 08:56:31;;;;;;;25.33;18.10;;;33.40;77.70;;;;;;5026307;28;20839;-69
2022/06/23 08:59:05;;;;;;;23.07;17.60;;;33.50;75.30;;;;;;5026135;28;20977;-68
2022/06/23 09:01:38;;;;;;;34.30;18.80;;;33.60;74.30;;;;;;5027214;28;20930;-69
2022/06/23 09:04:10;;;;;;;58.80;20.30;;;33.30;72.70;;;;;;5025382;28;20456;-68
2022/06/23 09:06:46;;;;;;;46.27;18.80;;;33.00;73.30;;;;;;5025757;28;20495;-69
2022/06/23 09:09:25;;;;;;;59.00;17.93;;;32.70;73.20;;;;;;5025544;28;20684;-68
2022/06/23 09:12:04;;;;;;;52.60;18.30;;;33.30;72.70;;;;;;5027907;28;20492;-69
2022/06/23 09:14:53;;;;;;;33.67;19.00;;;33.10;70.30;;;;;;5025559;28;20467;-68
2022/06/23 09:17:55;;;;;;;33.90;18.07;;;33.50;70.60;;;;;;5027618;28;20932;-68
2022/06/23 09:20:47;;;;;;;26.33;17.73;;;34.10;69.00;;;;;;5025139;28;20460;-69
2022/06/23 09:23:35;;;;;;;62.47;20.20;;;34.60;66.80;;;;;;5025383;28;20579;-68
2022/06/23 09:26:10;;;;;;;36.83;17.17;;;34.90;65.20;;;;;;5028220;28;20456;-69
2022/06/23 09:28:51;;;;;;;20.97;17.00;;;35.20;63.30;;;;;;5026742;28;21011;-69
2022/06/23 09:31:22;;;;;;;28.63;17.90;;;35.30;62.00;;;;;;5027968;28;20502;-69
2022/06/23 09:34:07;;;;;;;25.07;17.03;;;35.70;62.70;;;;;;5029083;28;20460;-69
2022/06/23 09:36:58;;;;;;;22.73;16.90;;;35.90;61.70;;;;;;5027521;28;20785;-69
2022/06/23 09:40:05;;;;;;;22.93;16.67;;;36.10;61.10;;;;;;5027242;28;20468;-69
2022/06/23 09:42:56;;;;;;;25.23;17.07;;;36.30;60.20;;;;;;5026917;28;20448;-68
2022/06/23 09:45:52;;;;;;;37.77;19.30;;;36.60;59.40;;;;;;5024493;28;21111;-69
2022/06/23 09:48:44;;;;;;;18.53;16.73;;;36.20;59.80;;;;;;5023215;28;20459;-68
2022/06/23 09:51:57;;;;;;;27.87;16.93;;;36.80;58.70;;;;;;5036031;28;21092;-68
2022/06/23 09:54:50;;;;;;;21.73;16.70;;;36.80;57.70;;;;;;5024924;28;20463;-69
2022/06/23 09:57:37;;;;;;;23.10;16.40;;;36.00;58.70;;;;;;5025113;28;20915;-69
2022/06/23 10:00:07;;;;;;;17.77;16.40;;;35.90;58.40;;;;;;5023615;28;20544;-69
2022/06/23 10:03:08;;;;;;;19.23;17.30;;;36.40;59.90;;;;;;5025409;28;20468;-69
2022/06/23 10:05:59;;;;;;;17.47;16.30;;;37.10;59.00;;;;;;5025325;28;20921;-69
2022/06/23 10:08:39;;;;;;;18.53;16.53;;;37.20;59.00;;;;;;5022100;28;20472;-69
2022/06/23 10:11:34;;;;;;;18.43;16.87;;;37.60;57.70;;;;;;5024860;28;20490;-69
2022/06/23 10:14:16;;;;;;;18.60;16.80;;;36.70;58.00;;;;;;5025233;28;20459;-70
2022/06/23 10:17:19;;;;;;;17.80;16.07;;;36.70;58.60;;;;;;5024847;28;21229;-68
2022/06/23 10:20:12;;;;;;;16.77;15.47;;;37.40;57.90;;;;;;5025132;28;20491;-68
2022/06/23 10:22:59;;;;;;;17.90;16.63;;;36.80;57.40;;;;;;5024380;28;20491;-68
2022/06/23 10:25:52;;;;;;;19.20;17.60;;;36.60;58.20;;;;;;5025978;28;20467;-68
2022/06/23 10:28:51;;;;;;;19.37;17.30;;;36.60;58.10;;;;;;5025131;28;20467;-69
2022/06/23 10:31:39;;;;;;;17.40;16.20;;;37.30;57.20;;;;;;5021695;28;20518;-70
2022/06/23 10:34:37;;;;;;;17.37;15.50;;;37.80;55.90;;;;;;5025093;28;20463;-69
2022/06/23 10:37:28;;;;;;;17.33;15.93;;;38.00;56.10;;;;;;5010988;28;20463;-69
2022/06/23 10:40:30;;;;;;;17.10;16.03;;;37.90;55.50;;;;;;5015398;28;20932;-69
2022/06/23 10:43:15;;;;;;;18.20;16.67;;;37.90;56.10;;;;;;5023902;28;21075;-69
2022/06/23 10:45:51;;;;;;;17.10;15.93;;;38.00;55.40;;;;;;5047561;28;20472;-69
2022/06/23 10:48:50;;;;;;;16.47;15.27;;;38.10;55.60;;;;;;5053917;28;20469;-69
2022/06/23 10:51:32;;;;;;;17.07;15.47;;;38.90;55.00;;;;;;5041115;28;21032;-69
2022/06/23 10:54:32;;;;;;;19.10;16.00;;;39.60;52.40;;;;;;5023074;28;21138;-68
2022/06/23 10:57:15;;;;;;;18.33;17.00;;;38.90;52.10;;;;;;5023479;28;20541;-70
2022/06/23 10:59:53;;;;;;;17.37;15.87;;;39.00;54.10;;;;;;5024449;28;20468;-69
2022/06/23 11:02:55;;;;;;;15.83;14.70;;;39.30;52.40;;;;;;5023520;28;20805;-69
2022/06/23 11:05:45;;;;;;;21.33;16.50;;;39.30;52.90;;;;;;5019322;28;21135;-69
2022/06/23 11:08:27;;;;;;;17.23;15.80;;;39.70;50.90;;;;;;5022554;28;20459;-69
2022/06/23 11:11:07;;;;;;;16.87;15.73;;;40.10;51.20;;;;;;5022815;28;20586;-69
2022/06/23 11:13:46;;;;;;;18.27;16.43;;;40.60;50.20;;;;;;5023979;28;20933;-69
2022/06/23 11:16:19;;;;;;;16.47;15.07;;;41.40;50.00;;;;;;5023469;28;20466;-69
2022/06/23 11:18:58;;;;;;;15.83;14.60;;;41.60;48.20;;;;;;5023361;28;21152;-69
2022/06/23 11:21:50;;;;;;;15.73;14.70;;;41.10;48.20;;;;;;5024078;28;20806;-69
2022/06/23 11:24:31;;;;;;;16.33;14.93;;;40.60;48.10;;;;;;5017539;28;20460;-69
2022/06/23 11:27:13;;;;;;;22.70;15.43;;;40.70;48.10;;;;;;5023238;28;20456;-69
2022/06/23 11:30:01;;;;;;;17.13;15.17;;;40.80;47.00;;;;;;5024184;28;20460;-69
2022/06/23 11:32:48;;;;;;;16.17;15.07;;;41.30;46.60;;;;;;5022939;28;20601;-69
2022/06/23 11:35:29;;;;;;;17.43;15.40;;;41.30;46.00;;;;;;5023564;28;20479;-69
2022/06/23 11:38:18;;;;;;;16.40;14.83;;;41.90;45.10;;;;;;5022957;28;20475;-70
2022/06/23 11:41:02;;;;;;;16.63;15.30;;;42.90;44.50;;;;;;5044736;28;20467;-69
2022/06/23 11:43:45;;;;;;;16.17;14.77;;;43.30;44.20;;;;;;5044636;28;20455;-69
2022/06/23 11:46:27;;;;;;;15.90;14.63;;;43.00;42.90;;;;;;5029905;28;20464;-69
2022/06/23 11:49:09;;;;;;;17.33;15.77;;;41.60;43.30;;;;;;5023517;28;20470;-70
2022/06/23 11:51:55;;;;;;;16.30;15.07;;;40.50;45.50;;;;;;5023137;28;21314;-70
2022/06/23 11:54:48;;;;;;;17.67;15.90;;;42.10;44.20;;;;;;5023877;28;20555;-69
2022/06/23 11:57:31;;;;;;;16.57;15.20;;;41.50;43.10;;;;;;5023922;28;20470;-70
2022/06/23 12:00:05;;;;;;;15.73;14.43;;;40.90;43.20;;;;;;5023839;28;20467;-69
2022/06/23 12:02:36;;;;;;;17.17;15.57;;;40.80;43.30;;;;;;5022812;28;20918;-69
2022/06/23 12:05:15;;;;;;;15.90;14.80;;;40.90;42.90;;;;;;5022852;28;20792;-69
2022/06/23 12:08:11;;;;;;;15.83;14.60;;;40.30;43.00;;;;;;5022541;28;20459;-69
2022/06/23 12:10:39;;;;;;;15.73;14.63;;;39.80;43.60;;;;;;5024132;28;20483;-70
2022/06/23 12:13:07;;;;;;;16.23;15.23;;;38.80;45.00;;;;;;5021771;28;20460;-70
2022/06/23 12:15:41;;;;;;;17.27;15.73;;;38.50;46.50;;;;;;5022297;28;20963;-69
2022/06/23 12:18:14;;;;;;;16.80;15.43;;;39.40;45.70;;;;;;5023886;28;20455;-68
2022/06/23 12:20:48;;;;;;;16.40;15.30;;;40.20;44.60;;;;;;5022575;28;20864;-70
2022/06/23 12:23:21;;;;;;;16.20;15.10;;;40.40;43.00;;;;;;5049507;28;20887;-69
2022/06/23 12:25:58;;;;;;;18.17;16.53;;;39.90;44.20;;;;;;5051050;28;20887;-70
2022/06/23 12:28:34;;;;;;;16.30;14.80;;;39.80;43.90;;;;;;5028491;28;20500;-69
2022/06/23 12:31:23;;;;;;;16.97;15.50;;;39.80;44.50;;;;;;5029513;28;20484;-69
2022/06/23 12:34:00;;;;;;;16.07;14.93;;;39.90;43.60;;;;;;5030683;28;20463;-69
2022/06/23 12:36:33;;;;;;;16.97;15.67;;;39.50;43.60;;;;;;5029565;28;20455;-69
2022/06/23 12:39:05;;;;;;;16.07;14.93;;;39.70;43.80;;;;;;5029403;28;20492;-69
2022/06/23 12:41:37;;;;;;;16.90;15.07;;;39.40;44.20;;;;;;5029493;28;20470;-69
2022/06/23 12:44:18;;;;;;;16.40;15.00;;;39.90;44.00;;;;;;5029534;28;20463;-69
2022/06/23 12:46:54;;;;;;;16.30;15.30;;;40.70;42.70;;;;;;5030004;28;20861;-69
2022/06/23 12:49:40;;;;;;;16.30;15.20;;;41.10;41.60;;;;;;5028771;28;21043;-70
2022/06/23 12:52:20;;;;;;;17.60;15.93;;;40.90;41.70;;;;;;5027210;28;20605;-69
2022/06/23 12:55:21;;;;;;;16.43;15.03;;;41.50;41.80;;;;;;5029664;28;20455;-69
2022/06/23 12:58:20;;;;;;;16.10;14.80;;;40.80;42.10;;;;;;5029325;28;20968;-69
2022/06/23 13:01:00;;;;;;;16.83;15.10;;;40.30;41.90;;;;;;5028693;28;20472;-69
2022/06/23 13:03:35;;;;;;;15.40;14.00;;;40.50;42.20;;;;;;5026530;28;20837;-69
2022/06/23 13:06:19;;;;;;;19.10;15.33;;;40.90;41.50;;;;;;5029594;28;20447;-70
2022/06/23 13:08:56;;;;;;;16.97;15.47;;;40.10;42.10;;;;;;5027444;28;20620;-69
2022/06/23 13:11:31;;;;;;;16.57;14.90;;;39.80;41.60;;;;;;5026621;28;20499;-69
2022/06/23 13:14:06;;;;;;;18.87;15.10;;;39.10;42.20;;;;;;5027964;28;20530;-68
2022/06/23 13:16:41;;;;;;;16.33;14.80;;;38.70;42.80;;;;;;5027820;28;20462;-69
2022/06/23 13:19:17;;;;;;;15.80;14.40;;;38.30;43.30;;;;;;5027911;28;20467;-69
2022/06/23 13:21:44;;;;;;;16.23;14.93;;;37.80;43.00;;;;;;5027961;28;20481;-69
2022/06/23 13:24:15;;;;;;;17.73;16.30;;;36.70;44.60;;;;;;5029733;28;20475;-69